createdAt,value
2019-03-08T00:00:41.421Z,1.50
2019-03-08T00:03:11.563Z,1.30
2019-03-08T00:05:40.545Z,1.10
2019-03-08T00:08:09.433Z,0.93
2019-03-08T00:10:38.341Z,1.27
2019-03-08T00:13:07.316Z,1.63
2019-03-08T00:15:36.615Z,1.33
2019-03-08T00:18:07.051Z,1.73
2019-03-08T00:20:35.881Z,1.70
2019-03-08T00:23:05.946Z,2.43
2019-03-08T00:25:34.796Z,2.00
2019-03-08T00:28:03.635Z,1.40
2019-03-08T00:30:32.810Z,1.57
2019-03-08T00:33:02.172Z,1.70
2019-03-08T00:35:32.482Z,2.27
2019-03-08T00:38:01.295Z,1.40
2019-03-08T00:40:30.189Z,1.60
2019-03-08T00:42:59.181Z,1.90
2019-03-08T00:45:28.270Z,1.50
2019-03-08T00:47:57.244Z,2.00
2019-03-08T00:50:26.184Z,1.23
2019-03-08T00:52:55.005Z,2.20
2019-03-08T00:55:25.135Z,2.80
2019-03-08T00:57:55.872Z,1.63
2019-03-08T01:00:24.714Z,1.37
2019-03-08T01:02:54.381Z,2.10
2019-03-08T01:05:23.503Z,3.40
2019-03-08T01:07:52.347Z,2.07
2019-03-08T01:10:24.357Z,2.30
2019-03-08T01:12:53.148Z,1.83
2019-03-08T01:15:22.180Z,2.00
2019-03-08T01:17:52.393Z,1.83
2019-03-08T01:20:21.592Z,1.70
2019-03-08T01:22:50.502Z,1.67
2019-03-08T01:25:21.485Z,1.93
2019-03-08T01:27:53.553Z,2.20
2019-03-08T01:30:22.523Z,2.77
2019-03-08T01:32:51.577Z,2.10
2019-03-08T01:35:22.016Z,2.50
2019-03-08T01:37:51.297Z,2.23
2019-03-08T01:40:22.375Z,1.87
2019-03-08T01:42:52.576Z,1.90
2019-03-08T01:45:21.514Z,2.60
2019-03-08T01:47:50.336Z,2.27
2019-03-08T01:50:19.370Z,2.40
2019-03-08T01:55:32.482Z,2.93
2019-03-08T01:58:02.757Z,2.70
2019-03-08T02:00:31.693Z,2.70
2019-03-08T02:03:01.026Z,2.30
2019-03-08T02:05:29.894Z,3.20
2019-03-08T02:07:58.750Z,3.00
2019-03-08T02:10:27.715Z,2.50
2019-03-08T02:12:56.712Z,1.97
2019-03-08T02:15:26.937Z,1.93
2019-03-08T02:17:55.862Z,2.63
2019-03-08T02:20:26.290Z,2.77
2019-03-08T02:22:55.310Z,2.27
2019-03-08T02:25:24.835Z,4.00
2019-03-08T02:27:53.700Z,2.20
2019-03-08T02:30:22.999Z,2.50
2019-03-08T02:32:52.146Z,3.40
2019-03-08T02:35:23.146Z,2.60
2019-03-08T02:37:52.143Z,2.60
2019-03-08T02:40:23.958Z,2.17
2019-03-08T02:42:52.793Z,1.77
2019-03-08T02:45:22.066Z,2.03
2019-03-08T02:47:50.889Z,1.90
2019-03-08T02:50:19.772Z,1.67
2019-03-08T02:52:48.611Z,1.90
2019-03-08T02:55:17.459Z,1.97
2019-03-08T02:57:46.367Z,2.20
2019-03-08T03:00:17.042Z,2.20
2019-03-08T03:02:46.281Z,2.00
2019-03-08T03:05:15.492Z,2.53
2019-03-08T03:07:45.795Z,2.40
2019-03-08T03:10:15.090Z,2.47
2019-03-08T03:12:43.932Z,2.10
2019-03-08T03:15:14.310Z,2.50
2019-03-08T03:17:43.641Z,2.67
2019-03-08T03:20:14.273Z,2.40
2019-03-08T03:22:43.098Z,2.60
2019-03-08T03:25:14.459Z,2.60
2019-03-08T03:27:43.364Z,2.80
2019-03-08T03:30:15.407Z,4.10
2019-03-08T03:32:44.524Z,3.90
2019-03-08T03:35:13.580Z,3.97
2019-03-08T03:37:42.500Z,3.43
2019-03-08T03:40:15.305Z,3.23
2019-03-08T03:42:45.705Z,3.90
2019-03-08T03:45:17.125Z,2.70
2019-03-08T03:47:46.041Z,3.33
2019-03-08T03:50:15.219Z,3.73
2019-03-08T03:52:44.092Z,3.70
2019-03-08T03:55:14.683Z,3.57
2019-03-08T03:57:45.357Z,3.60
2019-03-08T04:00:16.803Z,4.83
2019-03-08T04:02:45.722Z,4.50
2019-03-08T04:05:14.778Z,4.50
2019-03-08T04:07:43.740Z,4.00
2019-03-08T04:10:14.517Z,4.30
2019-03-08T04:12:45.503Z,4.87
2019-03-08T04:15:19.155Z,4.70
2019-03-08T04:17:48.331Z,4.83
2019-03-08T04:20:18.370Z,4.83
2019-03-08T04:22:47.282Z,5.20
2019-03-08T04:25:16.535Z,5.00
2019-03-08T04:27:45.446Z,4.83
2019-03-08T04:30:16.732Z,4.90
2019-03-08T04:32:45.765Z,5.37
2019-03-08T04:35:14.659Z,5.13
2019-03-08T04:37:43.674Z,4.70
2019-03-08T04:40:14.513Z,4.70
2019-03-08T04:42:43.301Z,5.17
2019-03-08T04:45:13.788Z,5.90
2019-03-08T04:47:42.623Z,5.83
2019-03-08T04:50:13.458Z,5.80
2019-03-08T04:52:42.381Z,5.37
2019-03-08T04:55:16.750Z,5.97
2019-03-08T04:57:45.354Z,6.63
2019-03-08T05:00:17.690Z,7.00
2019-03-08T05:02:47.668Z,5.30
2019-03-08T05:05:18.070Z,5.83
2019-03-08T05:07:47.110Z,6.37
2019-03-08T05:10:17.590Z,5.40
2019-03-08T05:12:46.540Z,6.40
2019-03-08T05:15:16.359Z,6.77
2019-03-08T05:17:45.165Z,5.90
2019-03-08T05:20:14.137Z,6.90
2019-03-08T05:22:43.066Z,7.20
2019-03-08T05:25:13.800Z,6.20
2019-03-08T05:27:43.990Z,5.83
2019-03-08T05:30:18.419Z,6.80
2019-03-08T05:32:47.399Z,7.53
2019-03-08T05:35:16.230Z,6.97
2019-03-08T05:37:46.648Z,6.80
2019-03-08T05:40:16.411Z,7.50
2019-03-08T05:42:45.410Z,8.13
2019-03-08T05:45:15.019Z,7.83
2019-03-08T05:47:45.502Z,7.43
2019-03-08T05:50:14.474Z,8.03
2019-03-08T05:52:44.478Z,8.30
2019-03-08T05:55:13.710Z,8.30
2019-03-08T05:57:42.667Z,8.07
2019-03-08T06:00:15.405Z,6.97
2019-03-08T06:02:44.290Z,8.50
2019-03-08T06:05:13.825Z,8.73
2019-03-08T06:07:42.828Z,8.13
2019-03-08T06:10:14.574Z,7.53
2019-03-08T06:12:43.507Z,8.47
2019-03-08T06:15:12.310Z,8.90
2019-03-08T06:17:41.221Z,8.50
2019-03-08T06:20:10.136Z,9.23
2019-03-08T06:22:39.102Z,9.50
2019-03-08T06:25:07.957Z,7.70
2019-03-08T06:27:36.865Z,8.43
2019-03-08T06:30:09.318Z,9.03
2019-03-08T06:32:38.308Z,9.30
2019-03-08T06:35:08.762Z,9.10
2019-03-08T06:37:37.636Z,9.03
2019-03-08T06:40:09.482Z,10.40
2019-03-08T06:42:39.762Z,8.37
2019-03-08T06:45:11.703Z,9.20
2019-03-08T06:47:40.557Z,7.13
2019-03-08T06:50:12.009Z,7.37
2019-03-08T06:52:42.230Z,7.70
2019-03-08T06:55:14.683Z,7.07
2019-03-08T06:57:43.728Z,6.20
2019-03-08T07:00:16.946Z,6.50
2019-03-08T07:02:45.911Z,7.17
2019-03-08T07:05:14.784Z,6.87
2019-03-08T07:07:43.669Z,7.47
2019-03-08T07:10:13.269Z,8.17
2019-03-08T07:12:42.317Z,7.73
2019-03-08T07:15:11.290Z,7.70
2019-03-08T07:17:40.282Z,7.97
2019-03-08T07:20:10.810Z,7.93
2019-03-08T07:22:41.926Z,9.87
2019-03-08T07:25:14.921Z,7.13
2019-03-08T07:27:45.420Z,7.07
2019-03-08T07:30:16.323Z,6.80
2019-03-08T07:32:47.184Z,6.80
2019-03-08T07:35:17.759Z,7.17
2019-03-08T07:37:48.182Z,7.33
2019-03-08T07:40:19.570Z,6.20
2019-03-08T07:42:50.514Z,7.33
2019-03-08T07:45:21.038Z,6.83
2019-03-08T07:47:51.589Z,7.37
2019-03-08T07:50:23.526Z,6.27
2019-03-08T07:52:54.030Z,6.50
2019-03-08T07:55:25.597Z,7.10
2019-03-08T07:57:54.462Z,5.53
2019-03-08T08:00:24.832Z,6.80
2019-03-08T08:03:03.271Z,7.20
2019-03-08T08:05:29.168Z,6.53
2019-03-08T08:07:59.647Z,5.90
2019-03-08T08:10:30.105Z,5.50
2019-03-08T08:13:01.030Z,4.00
2019-03-08T08:15:32.656Z,3.40
2019-03-08T08:18:03.045Z,3.80
2019-03-08T08:20:34.831Z,5.13
2019-03-08T08:23:05.445Z,4.57
2019-03-08T08:25:36.993Z,5.23
2019-03-08T08:28:07.823Z,5.20
2019-03-08T08:30:36.803Z,7.30
2019-03-08T08:33:07.709Z,6.00
2019-03-08T08:35:38.078Z,5.73
2019-03-08T08:38:08.490Z,6.90
2019-03-08T08:40:39.340Z,6.43
2019-03-08T08:43:09.852Z,5.50
2019-03-08T08:45:39.843Z,4.63
2019-03-08T08:48:12.232Z,6.00
2019-03-08T08:50:42.627Z,5.07
2019-03-08T08:53:11.399Z,5.53
2019-03-08T08:55:43.646Z,4.53
2019-03-08T08:58:14.213Z,5.47
2019-03-08T09:00:44.869Z,3.40
2019-03-08T09:03:15.333Z,3.77
2019-03-08T09:05:46.977Z,3.83
2019-03-08T09:08:17.932Z,2.77
2019-03-08T09:10:48.327Z,4.50
2019-03-08T09:13:18.766Z,4.30
2019-03-08T09:15:49.156Z,4.23
2019-03-08T09:18:19.540Z,4.33
2019-03-08T09:20:48.328Z,7.73
2019-03-08T09:23:18.878Z,4.50
2019-03-08T09:25:49.316Z,5.13
2019-03-08T09:28:19.767Z,5.23
2019-03-08T09:30:50.285Z,4.83
2019-03-08T09:33:24.072Z,5.03
2019-03-08T09:35:54.621Z,4.80
2019-03-08T09:38:25.033Z,5.30
2019-03-08T09:40:56.836Z,4.70
2019-03-08T09:43:27.688Z,5.50
2019-03-08T09:45:58.152Z,4.57
2019-03-08T09:48:31.654Z,6.83
2019-03-08T09:51:02.141Z,5.77
2019-03-08T09:53:32.615Z,4.63
2019-03-08T09:56:03.531Z,5.37
2019-03-08T09:58:33.899Z,4.63
2019-03-08T10:01:04.368Z,4.80
2019-03-08T10:03:36.639Z,4.13
2019-03-08T10:06:07.106Z,4.70
2019-03-08T10:08:38.430Z,3.83
2019-03-08T10:11:08.865Z,3.07
2019-03-08T10:13:38.714Z,3.50
2019-03-08T10:16:09.178Z,2.47
2019-03-08T10:18:37.969Z,2.00
2019-03-08T10:21:08.459Z,2.00
2019-03-08T10:23:38.874Z,3.00
2019-03-08T10:26:09.456Z,2.37
2019-03-08T10:28:41.179Z,2.03
2019-03-08T10:31:11.600Z,2.40
2019-03-08T10:33:46.548Z,2.73
2019-03-08T10:36:15.371Z,3.90
2019-03-08T10:38:46.364Z,3.03
2019-03-08T10:41:17.157Z,3.00
2019-03-08T10:43:47.873Z,3.60
2019-03-08T10:46:16.593Z,3.50
2019-03-08T10:48:47.357Z,4.10
2019-03-08T10:51:16.711Z,2.87
2019-03-08T10:53:45.539Z,3.63
2019-03-08T10:56:15.959Z,2.50
2019-03-08T10:58:46.377Z,2.80
2019-03-08T11:01:17.254Z,2.97
2019-03-08T11:03:48.448Z,3.57
2019-03-08T11:06:19.089Z,3.20
2019-03-08T11:08:50.047Z,3.17
2019-03-08T11:11:21.382Z,2.80
2019-03-08T11:13:51.875Z,2.20
2019-03-08T11:16:22.666Z,2.27
2019-03-08T11:18:54.499Z,2.47
2019-03-08T11:21:26.444Z,2.23
2019-03-08T11:23:56.996Z,2.17
2019-03-08T11:26:28.700Z,1.97
2019-03-08T11:28:59.176Z,2.20
2019-03-08T11:31:29.866Z,2.30
2019-03-08T11:34:00.336Z,3.17
2019-03-08T11:36:30.760Z,2.03
2019-03-08T11:39:01.095Z,2.57
2019-03-08T11:41:31.641Z,2.33
2019-03-08T11:44:02.047Z,2.27
2019-03-08T11:46:32.468Z,3.03
2019-03-08T11:49:02.947Z,2.77
2019-03-08T11:51:33.419Z,3.67
2019-03-08T11:54:04.049Z,2.07
2019-03-08T11:56:35.038Z,2.50
2019-03-08T11:59:05.680Z,3.07
2019-03-08T12:01:36.149Z,2.80
2019-03-08T12:04:06.555Z,2.83
2019-03-08T12:06:37.085Z,2.47
2019-03-08T12:09:10.152Z,1.90
2019-03-08T12:11:38.919Z,2.37
2019-03-08T12:14:09.328Z,2.33
2019-03-08T12:16:39.698Z,1.57
2019-03-08T12:19:10.513Z,2.43
2019-03-08T12:21:40.956Z,1.83
2019-03-08T12:24:11.296Z,2.53
2019-03-08T12:26:42.029Z,3.10
2019-03-08T12:29:12.500Z,3.40
2019-03-08T12:31:43.315Z,3.33
2019-03-08T12:34:13.718Z,3.53
2019-03-08T12:36:44.199Z,3.50
2019-03-08T12:39:14.686Z,4.40
2019-03-08T12:41:43.514Z,4.60
2019-03-08T12:44:13.933Z,3.27
2019-03-08T12:46:44.327Z,1.80
2019-03-08T12:49:14.711Z,3.00
2019-03-08T12:51:45.054Z,2.33
2019-03-08T12:54:15.426Z,3.10
2019-03-08T12:56:45.916Z,3.03
2019-03-08T12:59:16.327Z,2.30
2019-03-08T13:01:45.172Z,3.30
2019-03-08T13:04:15.614Z,2.50
2019-03-08T13:06:48.705Z,2.20
2019-03-08T13:09:19.051Z,2.70
2019-03-08T13:11:47.850Z,2.23
2019-03-08T13:14:16.836Z,2.53
2019-03-08T13:16:45.613Z,2.03
2019-03-08T13:19:14.435Z,2.50
2019-03-08T13:21:43.337Z,3.60
2019-03-08T13:24:12.336Z,2.90
2019-03-08T13:26:41.203Z,2.50
2019-03-08T13:29:10.667Z,3.30
2019-03-08T13:31:40.376Z,2.30
2019-03-08T13:34:09.157Z,2.60
2019-03-08T13:36:38.049Z,2.20
2019-03-08T13:39:07.878Z,2.50
2019-03-08T13:41:37.281Z,2.10
2019-03-08T13:44:06.214Z,4.00
2019-03-08T13:46:35.078Z,4.20
2019-03-08T13:49:03.935Z,2.50
2019-03-08T13:51:32.742Z,3.80
2019-03-08T13:54:01.591Z,3.20
2019-03-08T13:56:30.413Z,3.10
2019-03-08T13:58:59.203Z,2.70
2019-03-08T14:01:28.105Z,2.30
2019-03-08T14:03:56.987Z,2.73
2019-03-08T14:06:25.961Z,3.97
2019-03-08T14:08:54.720Z,3.73
2019-03-08T14:11:23.494Z,3.80
2019-03-08T14:13:53.228Z,3.33
2019-03-08T14:16:22.054Z,3.17
2019-03-08T14:18:50.988Z,3.47
2019-03-08T14:21:20.375Z,4.07
2019-03-08T14:23:49.239Z,5.10
2019-03-08T14:26:18.214Z,5.30
2019-03-08T14:28:48.257Z,5.30
2019-03-08T14:31:20.308Z,5.53
2019-03-08T14:33:49.337Z,5.63
2019-03-08T14:36:18.306Z,6.20
2019-03-08T14:38:47.386Z,4.90
2019-03-08T14:41:17.885Z,4.93
2019-03-08T14:43:49.004Z,5.20
2019-03-08T14:46:21.041Z,4.53
2019-03-08T14:48:51.200Z,4.50
2019-03-08T14:51:20.152Z,4.80
2019-03-08T14:53:49.072Z,5.17
2019-03-08T14:56:22.163Z,4.10
2019-03-08T14:58:52.414Z,4.23
2019-03-08T15:01:26.468Z,4.37
2019-03-08T15:03:56.623Z,4.53
2019-03-08T15:06:27.981Z,3.47
2019-03-08T15:08:57.964Z,3.57
2019-03-08T15:11:31.768Z,4.93
2019-03-08T15:14:00.622Z,4.60
2019-03-08T15:16:30.858Z,4.83
2019-03-08T15:19:03.804Z,5.70
2019-03-08T15:21:33.182Z,5.80
2019-03-08T15:24:00.974Z,5.50
2019-03-08T15:26:29.919Z,4.30
2019-03-08T15:28:58.816Z,5.10
2019-03-08T15:31:27.808Z,4.30
2019-03-08T15:33:56.629Z,3.80
2019-03-08T15:36:25.845Z,3.50
2019-03-08T15:38:58.452Z,3.70
2019-03-08T15:41:26.497Z,3.00
2019-03-08T15:43:55.582Z,2.83
2019-03-08T15:46:26.766Z,3.03
2019-03-08T15:48:58.389Z,2.73
2019-03-08T15:51:27.253Z,2.60
2019-03-08T15:53:56.107Z,2.50
2019-03-08T15:56:26.357Z,3.83
2019-03-08T15:58:55.367Z,3.30
2019-03-08T16:01:27.922Z,2.80
2019-03-08T16:03:56.963Z,2.63
2019-03-08T16:06:25.880Z,3.47
2019-03-08T16:08:54.958Z,3.43
2019-03-08T16:11:24.704Z,2.80
2019-03-08T16:13:54.086Z,2.70
2019-03-08T16:16:26.152Z,2.73
2019-03-08T16:18:55.085Z,3.70
2019-03-08T16:21:24.975Z,2.70
2019-03-08T16:23:54.137Z,3.00
2019-03-08T16:26:25.412Z,2.77
2019-03-08T16:28:53.435Z,2.73
2019-03-08T16:31:25.618Z,3.47
2019-03-08T16:33:55.807Z,3.80
2019-03-08T16:36:25.920Z,3.80
2019-03-08T16:38:56.094Z,3.80
2019-03-08T16:41:24.932Z,3.50
2019-03-08T16:43:55.342Z,5.30
2019-03-08T16:46:25.414Z,4.30
2019-03-08T16:48:53.947Z,4.40
2019-03-08T16:51:23.057Z,4.40
2019-03-08T16:53:54.092Z,4.73
2019-03-08T16:56:24.658Z,4.53
2019-03-08T16:58:55.226Z,4.53
2019-03-08T17:01:26.272Z,4.60
2019-03-08T17:03:56.800Z,4.93
2019-03-08T17:06:29.328Z,4.47
2019-03-08T17:08:59.551Z,4.87
2019-03-08T17:11:30.082Z,3.97
2019-03-08T17:14:00.591Z,5.77
2019-03-08T17:16:32.178Z,5.27
2019-03-08T17:19:11.434Z,5.60
2019-03-08T17:21:36.574Z,4.77
2019-03-08T17:24:07.141Z,5.70
2019-03-08T17:26:38.237Z,5.10
2019-03-08T17:29:07.179Z,5.27
2019-03-08T17:31:39.244Z,4.27
2019-03-08T17:34:10.718Z,4.97
2019-03-08T17:36:41.663Z,4.30
2019-03-08T17:39:12.327Z,5.23
2019-03-08T17:41:42.638Z,4.30
2019-03-08T17:44:13.066Z,3.63
2019-03-08T17:46:43.709Z,3.97
2019-03-08T17:49:14.087Z,3.50
2019-03-08T17:51:44.487Z,3.53
2019-03-08T17:54:15.022Z,4.27
2019-03-08T17:56:48.477Z,4.17
2019-03-08T17:59:18.957Z,3.77
2019-03-08T18:01:49.490Z,3.53
2019-03-08T18:04:20.023Z,3.80
2019-03-08T18:06:51.521Z,3.53
2019-03-08T18:09:24.366Z,3.93
2019-03-08T18:11:57.602Z,3.43
2019-03-08T18:14:28.299Z,3.70
2019-03-08T18:17:02.626Z,3.77
2019-03-08T18:19:33.712Z,3.97
2019-03-08T18:22:05.697Z,4.77
2019-03-08T18:24:36.117Z,4.50
2019-03-08T18:27:06.532Z,4.97
2019-03-08T18:29:37.957Z,5.20
2019-03-08T18:32:08.667Z,5.40
2019-03-08T18:34:38.642Z,4.40
2019-03-08T18:37:09.118Z,5.00
2019-03-08T18:39:40.993Z,5.27
2019-03-08T18:42:10.120Z,4.70
2019-03-08T18:44:40.540Z,4.50
2019-03-08T18:47:12.277Z,4.70
2019-03-08T18:49:42.810Z,4.90
2019-03-08T18:52:13.589Z,4.23
2019-03-08T18:54:44.045Z,3.60
2019-03-08T18:57:14.950Z,3.70
2019-03-08T18:59:45.511Z,3.60
2019-03-08T19:02:14.676Z,3.60
2019-03-08T19:04:46.701Z,5.07
2019-03-08T19:07:17.491Z,5.10
2019-03-08T19:09:50.586Z,6.20
2019-03-08T19:12:21.012Z,6.37
2019-03-08T19:14:51.483Z,5.30
2019-03-08T19:17:21.866Z,4.63
2019-03-08T19:19:52.428Z,4.67
2019-03-08T19:22:26.316Z,4.97
2019-03-08T19:24:55.735Z,4.23
2019-03-08T19:27:27.667Z,4.23
2019-03-08T19:29:58.129Z,4.67
2019-03-08T19:32:29.918Z,5.23
2019-03-08T19:35:00.473Z,4.30
2019-03-08T19:37:30.927Z,4.67
2019-03-08T19:40:01.459Z,3.70
2019-03-08T19:42:32.598Z,3.67
2019-03-08T19:45:03.175Z,5.20
2019-03-08T19:47:33.003Z,4.50
2019-03-08T19:50:03.750Z,3.80
2019-03-08T19:52:35.319Z,3.90
2019-03-08T19:55:07.459Z,3.70
2019-03-08T19:57:39.774Z,3.97
2019-03-08T20:00:12.902Z,3.87
2019-03-08T20:02:43.354Z,3.60
2019-03-08T20:05:13.933Z,3.83
2019-03-08T20:07:45.657Z,3.27
2019-03-08T20:10:16.122Z,3.87
2019-03-08T20:12:47.343Z,3.13
2019-03-08T20:15:17.876Z,3.20
2019-03-08T20:17:49.086Z,3.57
2019-03-08T20:20:19.106Z,3.90
2019-03-08T20:22:48.155Z,3.27
2019-03-08T20:25:20.451Z,3.97
2019-03-08T20:27:50.915Z,3.20
2019-03-08T20:30:20.897Z,3.73
2019-03-08T20:32:52.126Z,3.40
2019-03-08T20:35:22.743Z,3.93
2019-03-08T20:37:53.309Z,4.20
2019-03-08T20:40:23.857Z,3.47
2019-03-08T20:42:55.743Z,3.50
2019-03-08T20:45:26.228Z,3.53
2019-03-08T20:47:55.044Z,4.00
2019-03-08T20:50:24.065Z,4.03
2019-03-08T20:52:52.837Z,4.30
2019-03-08T20:55:21.750Z,5.20
2019-03-08T20:57:50.587Z,5.40
2019-03-08T21:00:19.656Z,4.90
2019-03-08T21:02:49.867Z,5.03
2019-03-08T21:05:20.224Z,5.20
2019-03-08T21:07:49.195Z,5.00
2019-03-08T21:10:18.163Z,5.40
2019-03-08T21:12:47.947Z,4.47
2019-03-08T21:15:24.909Z,4.90
2019-03-08T21:17:47.425Z,5.77
2019-03-08T21:20:17.323Z,5.30
2019-03-08T21:22:46.348Z,4.90
2019-03-08T21:25:17.843Z,4.30
2019-03-08T21:27:46.801Z,4.90
2019-03-08T21:30:18.071Z,4.80
2019-03-08T21:32:52.170Z,5.87
2019-03-08T21:35:21.298Z,5.70
2019-03-08T21:37:50.267Z,5.27
2019-03-08T21:40:21.663Z,5.70
2019-03-08T21:42:50.641Z,5.40
2019-03-08T21:45:19.790Z,4.60
2019-03-08T21:47:51.189Z,4.63
2019-03-08T21:50:21.571Z,4.77
2019-03-08T21:52:50.521Z,5.17
2019-03-08T21:55:20.146Z,3.97
2019-03-08T21:57:49.168Z,4.30
2019-03-08T22:00:21.041Z,3.90
2019-03-08T22:02:51.195Z,3.70
2019-03-08T22:05:23.581Z,4.13
2019-03-08T22:07:52.451Z,4.87
2019-03-08T22:10:22.893Z,4.00
2019-03-08T22:12:51.832Z,4.43
2019-03-08T22:15:20.581Z,5.47
2019-03-08T22:17:49.474Z,4.77
2019-03-08T22:20:18.413Z,5.37
2019-03-08T22:22:47.227Z,4.50
2019-03-08T22:25:18.277Z,4.10
2019-03-08T22:27:47.236Z,5.33
2019-03-08T22:30:18.174Z,3.90
2019-03-08T22:32:47.106Z,4.80
2019-03-08T22:35:16.105Z,4.30
2019-03-08T22:37:45.955Z,4.17
2019-03-08T22:40:15.903Z,4.00
2019-03-08T22:42:44.835Z,4.60
2019-03-08T22:45:14.090Z,3.97
2019-03-08T22:47:43.077Z,4.50
2019-03-08T22:50:13.956Z,4.00
2019-03-08T22:52:43.004Z,3.63
2019-03-08T22:55:14.243Z,5.80
2019-03-08T22:57:43.160Z,3.60
2019-03-08T23:00:14.846Z,2.60
2019-03-08T23:02:43.747Z,3.33
2019-03-08T23:05:12.572Z,3.40
2019-03-08T23:07:41.350Z,3.40
2019-03-08T23:10:11.948Z,4.53
2019-03-08T23:12:40.838Z,4.90
2019-03-08T23:15:10.741Z,3.37
2019-03-08T23:17:39.683Z,4.13
2019-03-08T23:20:09.215Z,3.23
2019-03-08T23:22:38.130Z,2.83
2019-03-08T23:25:07.154Z,3.40
2019-03-08T23:27:37.720Z,3.37
2019-03-08T23:30:10.593Z,2.97
2019-03-08T23:32:41.121Z,3.43
2019-03-08T23:35:10.157Z,3.00
2019-03-08T23:37:40.572Z,3.57
2019-03-08T23:40:10.461Z,3.70
2019-03-08T23:42:39.513Z,3.87
2019-03-08T23:45:09.917Z,4.20
2019-03-08T23:47:38.755Z,3.33
2019-03-08T23:50:09.549Z,3.30
2019-03-08T23:52:39.143Z,3.60
2019-03-08T23:55:10.891Z,3.17
2019-03-08T23:57:41.265Z,2.83
